Nissho Maru No.18 — JG5001 — position and weather

sailwx.info

Track history (hours):
 
Tides and Currents Weather Stations Pressure Air Temp Water Temp Dewpoint Dewpoint Depression Visibility Wind Speed Wind Dir Waves Ship Positions

Nissho Maru No.18

Last reported at 2017-Oct-17 04:21 UTC. Time now 2017-Oct-18 11:16 UTC.
Position N 35°33' E 140°00'.

Length 76 m; draft 4.7 m.

Type: Tanker. MMSI: 431101028.

Date/timePositionNaut miles runAvg speedWind from/ knotsBaromVisibWave heightAir tempDewpointWater temp
2017-Oct-17 04:21N 35°33' E 140°00'511.9
2017-Oct-17 03:56N 35°31' E 139°55'511.7
2017-Oct-17 03:30N 35°27' E 139°50'611.8
2017-Oct-17 03:00N 35°24' E 139°44'4 7.5
2017-Oct-17 02:30N 35°25' E 139°39'0 0.1
2017-Oct-17 02:00N 35°25' E 139°39'0 0.0
2017-Oct-17 01:30N 35°25' E 139°39'0 0.0
2017-Oct-17 00:57N 35°25' E 139°39'0 0.0
2017-Oct-17 00:24N 35°25' E 139°39'0 0.1
2017-Oct-16 23:57N 35°25' E 139°39'0 0.1
2017-Oct-16 23:30N 35°25' E 139°39'0 0.8
2017-Oct-16 23:00N 35°24' E 139°39'2 4.9
2017-Oct-16 22:30N 35°24' E 139°42'10 0.3
2017-Oct-15 09:58N 35°31' E 139°51'2 0.9
2017-Oct-15 07:30N 35°32' E 139°48'0 0.0
2017-Oct-15 05:51N 35°32' E 139°48'0 0.0
2017-Oct-15 05:21N 35°32' E 139°48'0 0.0
2017-Oct-15 05:00N 35°32' E 139°48'2 5.1
2017-Oct-15 04:30N 35°30' E 139°50'0 0.0
2017-Oct-15 03:55N 35°30' E 139°50'1 3.5
2017-Oct-15 03:30N 35°29' E 139°49'511.3
2017-Oct-15 03:00N 35°26' E 139°44'4 8.0
2017-Oct-15 02:31N 35°24' E 139°39'0 0.2
2017-Oct-15 01:58N 35°25' E 139°39'0 0.0
2017-Oct-15 01:31N 35°25' E 139°39'0 0.1
2017-Oct-15 01:01N 35°25' E 139°39'0 0.1
2017-Oct-15 00:28N 35°25' E 139°39'0 0.0
2017-Oct-14 23:58N 35°25' E 139°39'0 0.0
2017-Oct-14 23:28N 35°25' E 139°39'0 0.9
2017-Oct-14 23:00N 35°24' E 139°39'3 5.6
2017-Oct-14 22:30N 35°24' E 139°43'713.8
2017-Oct-14 21:59N 35°29' E 139°50'5 0.3
2017-Oct-14 04:01N 35°31' E 139°56'111.3
2017-Oct-14 03:56N 35°30' E 139°55'511.1
2017-Oct-14 03:30N 35°27' E 139°50'611.3
2017-Oct-14 03:00N 35°25' E 139°44'4 8.0
2017-Oct-14 02:30N 35°25' E 139°39'0 0.0
2017-Oct-14 02:00N 35°25' E 139°39'0 0.0
2017-Oct-14 01:30N 35°25' E 139°39'0 0.0
2017-Oct-14 01:00N 35°25' E 139°39'0 0.0
2017-Oct-14 00:27N 35°25' E 139°39'0 0.0
2017-Oct-14 00:00N 35°25' E 139°39'0 0.0
2017-Oct-13 23:28N 35°25' E 139°39'1 1.3
2017-Oct-13 23:00N 35°24' E 139°40'2 4.5
2017-Oct-13 22:30N 35°24' E 139°42'13 0.3
2017-Oct-12 03:49N 35°31' E 139°56'411.8
2017-Oct-12 03:30N 35°29' E 139°52'611.8
2017-Oct-12 03:00N 35°26' E 139°46'510.7
2017-Oct-12 02:30N 35°24' E 139°40'1 1.3
2017-Oct-12 01:56N 35°25' E 139°39'0 0.0
2017-Oct-12 01:29N 35°25' E 139°39'0 0.0
2017-Oct-11 23:08N 35°25' E 139°39'0 2.2
2017-Oct-11 22:57N 35°24' E 139°39'4 7.7
2017-Oct-11 22:28N 35°25' E 139°44'4 0.2
2017-Oct-10 23:53N 35°25' E 139°39'1 1.2
2017-Oct-10 23:10N 35°24' E 139°40'1 3.0
2017-Oct-10 22:58N 35°24' E 139°40'5 9.2
2017-Oct-10 22:28N 35°26' E 139°45'10 0.5
2017-Oct-10 04:04N 35°31' E 139°55'111.4
2017-Oct-10 04:00N 35°30' E 139°55'611.5
2017-Oct-10 03:30N 35°27' E 139°49'611.6
2017-Oct-10 03:01N 35°24' E 139°43'3 5.9
2017-Oct-10 02:30N 35°25' E 139°39'0 0.0
2017-Oct-10 01:58N 35°25' E 139°39'0 0.0
2017-Oct-10 01:28N 35°25' E 139°39'0 0.0
2017-Oct-10 00:58N 35°25' E 139°39'0 0.0
2017-Oct-10 00:25N 35°25' E 139°39'0 0.0
2017-Oct-09 23:58N 35°25' E 139°39'0 0.0
2017-Oct-09 23:28N 35°25' E 139°39'0 0.6
2017-Oct-09 23:00N 35°24' E 139°39'3 6.4
2017-Oct-09 22:30N 35°25' E 139°43'3 0.2
2017-Oct-09 03:09N 35°26' E 139°47'511.6
2017-Oct-09 02:45N 35°24' E 139°42'2 9.2
2017-Oct-09 02:29N 35°24' E 139°39'1 0.3
2017-Oct-08 22:58N 35°24' E 139°40'4 8.6
2017-Oct-08 22:29N 35°26' E 139°45'  
Track history (hours):
 
Tides and Currents Weather Stations Pressure Air Temp Water Temp Dewpoint Dewpoint Depression Visibility Wind Speed Wind Dir Waves Ship Positions

Nissho Maru No.18

Last reported at 2017-Oct-17 04:21 UTC. Time now 2017-Oct-18 11:16 UTC.
Position N 35°33' E 140°00'.

Length 76 m; draft 4.7 m.

Type: Tanker. MMSI: 431101028.

Date/timePositionNaut miles runAvg speedWind from/ knotsBaromVisibWave heightAir tempDewpointWater temp
2017-Oct-17 04:21N 35°33' E 140°00'511.9
2017-Oct-17 03:56N 35°31' E 139°55'511.7
2017-Oct-17 03:30N 35°27' E 139°50'611.8
2017-Oct-17 03:00N 35°24' E 139°44'4 7.5
2017-Oct-17 02:30N 35°25' E 139°39'0 0.1
2017-Oct-17 02:00N 35°25' E 139°39'0 0.0
2017-Oct-17 01:30N 35°25' E 139°39'0 0.0
2017-Oct-17 00:57N 35°25' E 139°39'0 0.0
2017-Oct-17 00:24N 35°25' E 139°39'0 0.1
2017-Oct-16 23:57N 35°25' E 139°39'0 0.1
2017-Oct-16 23:30N 35°25' E 139°39'0 0.8
2017-Oct-16 23:00N 35°24' E 139°39'2 4.9
2017-Oct-16 22:30N 35°24' E 139°42'10 0.3
2017-Oct-15 09:58N 35°31' E 139°51'2 0.9
2017-Oct-15 07:30N 35°32' E 139°48'0 0.0
2017-Oct-15 05:51N 35°32' E 139°48'0 0.0
2017-Oct-15 05:21N 35°32' E 139°48'0 0.0
2017-Oct-15 05:00N 35°32' E 139°48'2 5.1
2017-Oct-15 04:30N 35°30' E 139°50'0 0.0
2017-Oct-15 03:55N 35°30' E 139°50'1 3.5
2017-Oct-15 03:30N 35°29' E 139°49'511.3
2017-Oct-15 03:00N 35°26' E 139°44'4 8.0
2017-Oct-15 02:31N 35°24' E 139°39'0 0.2
2017-Oct-15 01:58N 35°25' E 139°39'0 0.0
2017-Oct-15 01:31N 35°25' E 139°39'0 0.1
2017-Oct-15 01:01N 35°25' E 139°39'0 0.1
2017-Oct-15 00:28N 35°25' E 139°39'0 0.0
2017-Oct-14 23:58N 35°25' E 139°39'0 0.0
2017-Oct-14 23:28N 35°25' E 139°39'0 0.9
2017-Oct-14 23:00N 35°24' E 139°39'3 5.6
2017-Oct-14 22:30N 35°24' E 139°43'713.8
2017-Oct-14 21:59N 35°29' E 139°50'5 0.3
2017-Oct-14 04:01N 35°31' E 139°56'111.3
2017-Oct-14 03:56N 35°30' E 139°55'511.1
2017-Oct-14 03:30N 35°27' E 139°50'611.3
2017-Oct-14 03:00N 35°25' E 139°44'4 8.0
2017-Oct-14 02:30N 35°25' E 139°39'0 0.0
2017-Oct-14 02:00N 35°25' E 139°39'0 0.0
2017-Oct-14 01:30N 35°25' E 139°39'0 0.0
2017-Oct-14 01:00N 35°25' E 139°39'0 0.0
2017-Oct-14 00:27N 35°25' E 139°39'0 0.0
2017-Oct-14 00:00N 35°25' E 139°39'0 0.0
2017-Oct-13 23:28N 35°25' E 139°39'1 1.3
2017-Oct-13 23:00N 35°24' E 139°40'2 4.5
2017-Oct-13 22:30N 35°24' E 139°42'13 0.3
2017-Oct-12 03:49N 35°31' E 139°56'411.8
2017-Oct-12 03:30N 35°29' E 139°52'611.8
2017-Oct-12 03:00N 35°26' E 139°46'510.7
2017-Oct-12 02:30N 35°24' E 139°40'1 1.3
2017-Oct-12 01:56N 35°25' E 139°39'0 0.0
2017-Oct-12 01:29N 35°25' E 139°39'0 0.0
2017-Oct-11 23:08N 35°25' E 139°39'0 2.2
2017-Oct-11 22:57N 35°24' E 139°39'4 7.7
2017-Oct-11 22:28N 35°25' E 139°44'4 0.2
2017-Oct-10 23:53N 35°25' E 139°39'1 1.2
2017-Oct-10 23:10N 35°24' E 139°40'1 3.0
2017-Oct-10 22:58N 35°24' E 139°40'5 9.2
2017-Oct-10 22:28N 35°26' E 139°45'10 0.5
2017-Oct-10 04:04N 35°31' E 139°55'111.4
2017-Oct-10 04:00N 35°30' E 139°55'611.5
2017-Oct-10 03:30N 35°27' E 139°49'611.6
2017-Oct-10 03:01N 35°24' E 139°43'3 5.9
2017-Oct-10 02:30N 35°25' E 139°39'0 0.0
2017-Oct-10 01:58N 35°25' E 139°39'0 0.0
2017-Oct-10 01:28N 35°25' E 139°39'0 0.0
2017-Oct-10 00:58N 35°25' E 139°39'0 0.0
2017-Oct-10 00:25N 35°25' E 139°39'0 0.0
2017-Oct-09 23:58N 35°25' E 139°39'0 0.0
2017-Oct-09 23:28N 35°25' E 139°39'0 0.6
2017-Oct-09 23:00N 35°24' E 139°39'3 6.4
2017-Oct-09 22:30N 35°25' E 139°43'3 0.2
2017-Oct-09 03:09N 35°26' E 139°47'511.6
2017-Oct-09 02:45N 35°24' E 139°42'2 9.2
2017-Oct-09 02:29N 35°24' E 139°39'1 0.3
2017-Oct-08 22:58N 35°24' E 139°40'4 8.6
2017-Oct-08 22:29N 35°26' E 139°45'  

Dump ship's entire track history